createdAt,value
2022-07-29T00:01:46.600Z,3.20
2022-07-29T00:04:18.520Z,2.80
2022-07-29T00:06:55.890Z,3.33
2022-07-29T00:09:29.152Z,3.27
2022-07-29T00:12:25.395Z,3.27
2022-07-29T00:14:57.649Z,3.30
2022-07-29T00:17:35.405Z,3.07
2022-07-29T00:20:08.805Z,3.00
2022-07-29T00:22:40.293Z,2.90
2022-07-29T00:25:24.235Z,3.00
2022-07-29T00:27:56.312Z,3.30
2022-07-29T00:30:26.828Z,3.47
2022-07-29T00:33:05.856Z,3.03
2022-07-29T00:35:49.016Z,3.30
2022-07-29T00:38:21.976Z,2.90
2022-07-29T00:40:52.369Z,2.87
2022-07-29T00:43:20.939Z,3.30
2022-07-29T00:45:49.499Z,3.97
2022-07-29T00:48:19.923Z,3.17
2022-07-29T00:50:52.361Z,3.23
2022-07-29T00:53:23.269Z,3.50
2022-07-29T00:55:52.380Z,3.50
2022-07-29T00:58:21.199Z,3.10
2022-07-29T01:00:53.576Z,3.13
2022-07-29T01:03:24.518Z,3.40
2022-07-29T01:05:57.559Z,4.77
2022-07-29T01:08:29.684Z,3.70
2022-07-29T01:11:01.187Z,3.10
2022-07-29T01:13:32.468Z,3.50
2022-07-29T01:16:17.303Z,2.70
2022-07-29T01:18:56.174Z,3.60
2022-07-29T01:21:53.095Z,3.20
2022-07-29T01:25:04.565Z,3.30
2022-07-29T01:27:53.373Z,3.10
2022-07-29T01:30:27.720Z,3.67
2022-07-29T01:33:03.575Z,4.43
2022-07-29T01:35:41.799Z,3.30
2022-07-29T01:38:15.557Z,3.47
2022-07-29T01:40:51.813Z,3.57
2022-07-29T01:43:30.340Z,3.60
2022-07-29T01:46:14.039Z,3.43
2022-07-29T01:48:49.641Z,3.57
2022-07-29T01:51:27.275Z,3.63
2022-07-29T01:54:06.341Z,3.80
2022-07-29T01:56:38.364Z,4.17
2022-07-29T01:59:11.327Z,3.30
2022-07-29T02:01:45.636Z,4.00
2022-07-29T02:04:29.135Z,4.03
2022-07-29T02:07:05.683Z,4.07
2022-07-29T02:09:40.316Z,4.10
2022-07-29T02:12:15.130Z,3.60
2022-07-29T02:15:00.889Z,4.20
2022-07-29T02:18:19.058Z,3.63
2022-07-29T02:21:22.358Z,3.20
2022-07-29T02:24:32.576Z,4.67
2022-07-29T02:27:03.923Z,3.20
2022-07-29T02:29:34.581Z,3.47
2022-07-29T02:32:05.607Z,4.00
2022-07-29T02:34:37.827Z,4.00
2022-07-29T02:37:15.749Z,4.17
2022-07-29T02:39:59.504Z,3.40
2022-07-29T02:42:47.075Z,4.60
2022-07-29T02:45:15.572Z,4.50
2022-07-29T02:47:49.940Z,4.27
2022-07-29T02:50:30.245Z,4.57
2022-07-29T02:53:07.482Z,3.93
2022-07-29T02:55:42.577Z,4.60
2022-07-29T02:58:23.764Z,3.70
2022-07-29T03:00:55.043Z,3.27
2022-07-29T03:03:24.704Z,3.40
2022-07-29T03:05:56.925Z,3.70
2022-07-29T03:08:26.914Z,3.60
2022-07-29T03:10:56.983Z,3.70
2022-07-29T03:13:27.633Z,3.40
2022-07-29T03:15:57.647Z,3.40
2022-07-29T03:18:27.726Z,3.63
2022-07-29T03:20:57.978Z,3.57
2022-07-29T03:23:28.787Z,3.80
2022-07-29T03:26:11.245Z,3.40
2022-07-29T03:28:39.809Z,3.57
2022-07-29T03:31:14.085Z,3.80
2022-07-29T03:33:42.569Z,4.17
2022-07-29T03:36:18.725Z,3.80
2022-07-29T03:38:50.173Z,3.53
2022-07-29T03:41:22.620Z,3.43
2022-07-29T03:43:53.870Z,4.00
2022-07-29T03:46:25.764Z,3.50
2022-07-29T03:49:02.171Z,4.10
2022-07-29T03:51:33.354Z,3.63
2022-07-29T03:54:07.897Z,3.30
2022-07-29T03:56:44.135Z,3.83
2022-07-29T03:59:20.443Z,3.00
2022-07-29T04:01:50.941Z,3.30
2022-07-29T04:04:20.262Z,4.37
2022-07-29T04:06:50.363Z,3.77
2022-07-29T04:09:19.007Z,3.30
2022-07-29T04:12:01.952Z,4.10
2022-07-29T04:14:33.049Z,5.10
2022-07-29T04:17:01.954Z,3.60
2022-07-29T04:19:30.570Z,3.47
2022-07-29T04:22:01.404Z,3.60
2022-07-29T04:24:30.420Z,3.37
2022-07-29T04:26:58.974Z,3.60
2022-07-29T04:29:27.347Z,3.20
2022-07-29T04:31:55.808Z,3.50
2022-07-29T04:34:27.975Z,3.63
2022-07-29T04:36:57.120Z,3.70
2022-07-29T04:39:29.632Z,3.40
2022-07-29T04:41:59.115Z,3.40
2022-07-29T04:44:28.953Z,3.63
2022-07-29T04:46:59.230Z,3.33
2022-07-29T04:49:27.712Z,3.27
2022-07-29T04:51:56.305Z,3.90
2022-07-29T04:54:26.087Z,3.30
2022-07-29T04:56:54.996Z,3.60
2022-07-29T04:59:23.549Z,4.00
2022-07-29T05:01:52.006Z,5.47
2022-07-29T05:04:21.109Z,4.13
2022-07-29T05:06:50.047Z,4.70
2022-07-29T05:09:18.441Z,3.57
2022-07-29T05:11:48.280Z,3.80
2022-07-29T05:14:17.968Z,3.53
2022-07-29T05:16:46.736Z,3.20
2022-07-29T05:19:15.675Z,3.37
2022-07-29T05:21:44.184Z,3.30
2022-07-29T05:24:12.888Z,3.50
2022-07-29T05:26:41.997Z,3.43
2022-07-29T05:29:44.106Z,3.60
2022-07-29T05:32:00.632Z,3.60
2022-07-29T05:34:29.141Z,4.40
2022-07-29T05:36:57.576Z,3.33
2022-07-29T05:39:47.222Z,3.87
2022-07-29T05:42:14.864Z,4.00
2022-07-29T05:44:44.726Z,13.23
2022-07-29T05:47:13.511Z,4.40
2022-07-29T05:49:42.053Z,3.77
2022-07-29T05:52:10.986Z,4.77
2022-07-29T05:54:39.414Z,3.80
2022-07-29T05:57:08.349Z,3.73
2022-07-29T05:59:38.730Z,3.53
2022-07-29T06:02:08.594Z,4.00
2022-07-29T06:04:37.265Z,3.20
2022-07-29T06:07:06.514Z,3.70
2022-07-29T06:09:36.293Z,3.67
2022-07-29T06:12:05.948Z,3.50
2022-07-29T06:14:34.556Z,3.57
2022-07-29T06:17:03.204Z,3.13
2022-07-29T06:19:33.070Z,3.77
2022-07-29T06:22:01.554Z,4.17
2022-07-29T06:24:30.189Z,4.40
2022-07-29T06:26:58.689Z,4.70
2022-07-29T06:29:30.517Z,5.17
2022-07-29T06:31:58.978Z,4.60
2022-07-29T06:34:27.458Z,4.67
2022-07-29T06:36:57.451Z,4.30
2022-07-29T06:39:25.925Z,3.77
2022-07-29T06:41:55.012Z,5.10
2022-07-29T06:44:26.792Z,3.97
2022-07-29T06:46:55.776Z,10.27
2022-07-29T06:49:25.363Z,4.80
2022-07-29T06:51:54.141Z,4.20
2022-07-29T06:54:24.032Z,4.33
2022-07-29T06:56:52.551Z,4.00
2022-07-29T06:59:27.505Z,3.30
2022-07-29T07:02:00.652Z,3.67
2022-07-29T07:04:29.253Z,3.70
2022-07-29T07:06:57.718Z,3.53
2022-07-29T07:09:31.102Z,3.80
2022-07-29T07:12:09.844Z,4.33
2022-07-29T07:14:38.506Z,4.03
2022-07-29T07:17:08.073Z,4.80
2022-07-29T07:19:36.727Z,4.17
2022-07-29T07:22:05.291Z,4.20
2022-07-29T07:24:35.336Z,4.50
2022-07-29T07:27:03.936Z,4.30
2022-07-29T07:29:32.639Z,4.37
2022-07-29T07:32:01.566Z,3.93
2022-07-29T07:34:31.037Z,5.20
2022-07-29T07:36:59.510Z,4.00
2022-07-29T07:39:28.121Z,4.00
2022-07-29T07:41:57.930Z,4.10
2022-07-29T07:44:26.568Z,4.37
2022-07-29T07:46:55.241Z,4.53
2022-07-29T07:49:23.817Z,4.40
2022-07-29T07:51:53.542Z,4.80
2022-07-29T07:54:21.954Z,4.40
2022-07-29T07:56:53.318Z,4.93
2022-07-29T07:59:23.382Z,5.43
2022-07-29T08:01:56.232Z,5.87
2022-07-29T08:04:28.360Z,4.87
2022-07-29T08:06:58.899Z,5.40
2022-07-29T08:09:30.537Z,5.30
2022-07-29T08:12:03.282Z,5.30
2022-07-29T08:14:37.337Z,4.50
2022-07-29T08:17:05.922Z,5.57
2022-07-29T08:19:34.502Z,4.50
2022-07-29T08:22:02.965Z,5.03
2022-07-29T08:24:53.169Z,5.90
2022-07-29T08:27:42.577Z,4.73
2022-07-29T08:30:13.003Z,3.97
2022-07-29T08:32:53.780Z,4.23
2022-07-29T08:35:24.453Z,4.00
2022-07-29T08:37:53.634Z,4.53
2022-07-29T08:40:32.144Z,4.70
2022-07-29T08:43:07.294Z,4.30
2022-07-29T08:45:47.967Z,5.60
2022-07-29T08:48:19.990Z,4.00
2022-07-29T08:50:51.045Z,4.20
2022-07-29T08:53:20.770Z,4.23
2022-07-29T08:55:51.746Z,4.27
2022-07-29T08:58:23.165Z,4.50
2022-07-29T09:00:58.159Z,3.83
2022-07-29T09:03:33.153Z,3.83
2022-07-29T09:06:09.710Z,3.83
2022-07-29T09:08:38.147Z,4.30
2022-07-29T09:11:08.707Z,4.57
2022-07-29T09:13:37.285Z,3.60
2022-07-29T09:16:22.495Z,3.90
2022-07-29T09:19:02.401Z,3.83
2022-07-29T09:22:01.671Z,3.80
2022-07-29T09:24:42.286Z,3.50
2022-07-29T09:27:23.608Z,3.40
2022-07-29T09:30:00.832Z,3.07
2022-07-29T09:32:31.494Z,3.67
2022-07-29T09:35:21.673Z,3.63
2022-07-29T09:37:50.938Z,2.93
2022-07-29T09:40:21.648Z,2.93
2022-07-29T09:42:51.040Z,3.20
2022-07-29T09:45:33.980Z,3.27
2022-07-29T09:48:17.741Z,3.60
2022-07-29T09:50:47.974Z,3.20
2022-07-29T09:53:33.652Z,3.23
2022-07-29T09:56:02.840Z,3.50
2022-07-29T09:58:31.518Z,3.17
2022-07-29T10:01:04.197Z,3.80
2022-07-29T10:03:54.812Z,2.80
2022-07-29T10:06:23.375Z,2.83
2022-07-29T10:08:51.864Z,2.70
2022-07-29T10:11:21.425Z,2.70
2022-07-29T10:13:51.054Z,2.80
2022-07-29T10:16:19.760Z,3.77
2022-07-29T10:18:48.746Z,3.90
2022-07-29T10:21:34.839Z,3.07
2022-07-29T10:24:06.061Z,3.57
2022-07-29T10:26:35.226Z,2.90
2022-07-29T10:29:03.754Z,2.80
2022-07-29T10:31:45.243Z,2.30
2022-07-29T10:34:33.048Z,2.63
2022-07-29T10:37:19.412Z,3.03
2022-07-29T10:40:22.873Z,2.97
2022-07-29T10:42:55.688Z,2.80
2022-07-29T10:45:25.234Z,3.13
2022-07-29T10:48:08.088Z,3.40
2022-07-29T10:50:56.748Z,2.97
2022-07-29T10:53:51.069Z,3.17
2022-07-29T10:56:31.784Z,2.70
2022-07-29T10:59:36.069Z,3.00
2022-07-29T11:02:44.864Z,2.83
2022-07-29T11:05:18.012Z,2.07
2022-07-29T11:08:27.796Z,3.03
2022-07-29T11:11:33.324Z,2.40
2022-07-29T11:14:03.356Z,2.30
2022-07-29T11:17:06.931Z,2.37
2022-07-29T11:19:40.200Z,2.90
2022-07-29T11:22:12.246Z,1.90
2022-07-29T11:24:49.332Z,2.30
2022-07-29T11:27:22.976Z,2.17
2022-07-29T11:32:48.755Z,2.77
2022-07-29T11:35:37.653Z,2.47
2022-07-29T11:38:29.166Z,2.30
2022-07-29T11:41:25.331Z,2.10
2022-07-29T11:43:56.715Z,2.20
2022-07-29T11:46:47.071Z,2.20
2022-07-29T11:49:22.006Z,1.97
2022-07-29T11:52:05.593Z,1.90
2022-07-29T11:54:57.242Z,2.83
2022-07-29T11:57:36.329Z,2.50
2022-07-29T12:00:12.455Z,2.13
2022-07-29T12:02:48.187Z,2.37
2022-07-29T12:05:36.433Z,2.37
2022-07-29T12:08:15.043Z,2.20
2022-07-29T12:10:45.085Z,1.97
2022-07-29T12:13:16.314Z,2.13
2022-07-29T12:15:54.459Z,2.00
2022-07-29T12:18:24.047Z,2.37
2022-07-29T12:21:03.706Z,2.30
2022-07-29T12:23:34.455Z,1.90
2022-07-29T12:28:52.369Z,1.90
2022-07-29T12:31:44.141Z,2.30
2022-07-29T12:34:15.566Z,2.07
2022-07-29T12:36:44.956Z,2.07
2022-07-29T12:39:18.072Z,2.00
2022-07-29T12:41:48.483Z,2.97
2022-07-29T12:44:18.377Z,2.50
2022-07-29T12:46:47.674Z,2.43
2022-07-29T12:49:25.719Z,2.47
2022-07-29T12:51:54.662Z,2.30
2022-07-29T12:54:23.528Z,2.50
2022-07-29T12:57:01.509Z,2.43
2022-07-29T12:59:31.426Z,2.53
2022-07-29T13:02:00.953Z,2.47
2022-07-29T13:04:32.627Z,2.40
2022-07-29T13:07:04.620Z,2.40
2022-07-29T13:09:42.667Z,2.30
2022-07-29T13:12:13.496Z,1.97
2022-07-29T13:14:45.888Z,2.97
2022-07-29T13:17:17.807Z,2.37
2022-07-29T13:19:49.709Z,2.43
2022-07-29T13:22:21.830Z,2.60
2022-07-29T13:24:52.785Z,2.30
2022-07-29T13:27:23.491Z,2.13
2022-07-29T13:29:57.331Z,1.93
2022-07-29T13:32:28.849Z,2.40
2022-07-29T13:34:59.021Z,1.90
2022-07-29T13:37:30.725Z,2.00
2022-07-29T13:40:00.280Z,2.07
2022-07-29T13:42:29.236Z,2.60
2022-07-29T13:44:59.344Z,1.83
2022-07-29T13:47:32.788Z,1.83
2022-07-29T13:50:02.394Z,2.20
2022-07-29T13:52:31.445Z,2.23
2022-07-29T13:54:59.943Z,2.10
2022-07-29T13:57:29.325Z,1.90
2022-07-29T13:59:59.471Z,2.00
2022-07-29T14:02:27.947Z,2.50
2022-07-29T14:04:56.622Z,1.77
2022-07-29T14:07:25.476Z,1.67
2022-07-29T14:09:53.947Z,1.90
2022-07-29T14:12:22.395Z,2.00
2022-07-29T14:14:52.752Z,2.57
2022-07-29T14:17:22.748Z,2.43
2022-07-29T14:19:51.300Z,2.00
2022-07-29T14:22:19.979Z,1.43
2022-07-29T14:24:50.692Z,1.67
2022-07-29T14:27:19.881Z,1.73
2022-07-29T14:30:08.409Z,1.97
2022-07-29T14:32:38.375Z,2.17
2022-07-29T14:35:08.806Z,1.80
2022-07-29T14:37:40.535Z,1.90
2022-07-29T14:40:11.453Z,1.50
2022-07-29T14:42:40.530Z,1.40
2022-07-29T14:45:11.386Z,2.40
2022-07-29T14:47:42.260Z,2.10
2022-07-29T14:50:11.880Z,1.97
2022-07-29T14:52:40.417Z,1.87
2022-07-29T14:55:19.425Z,1.83
2022-07-29T14:57:50.803Z,2.27
2022-07-29T15:00:20.247Z,1.80
2022-07-29T15:03:01.967Z,1.80
2022-07-29T15:05:31.252Z,2.30
2022-07-29T15:07:59.930Z,1.93
2022-07-29T15:10:28.999Z,1.70
2022-07-29T15:12:58.622Z,1.93
2022-07-29T15:15:27.298Z,2.00
2022-07-29T15:17:57.161Z,2.33
2022-07-29T15:20:27.981Z,2.33
2022-07-29T15:22:56.851Z,2.27
2022-07-29T15:25:25.456Z,2.50
2022-07-29T15:28:00.941Z,2.57
2022-07-29T15:30:33.798Z,2.10
2022-07-29T15:33:05.553Z,2.27
2022-07-29T15:35:40.439Z,2.30
2022-07-29T15:38:10.200Z,2.20
2022-07-29T15:40:41.215Z,2.30
2022-07-29T15:43:09.800Z,2.40
2022-07-29T15:45:40.348Z,2.70
2022-07-29T15:48:14.857Z,2.30
2022-07-29T15:50:47.053Z,2.90
2022-07-29T15:53:16.313Z,2.20
2022-07-29T15:55:46.041Z,2.60
2022-07-29T15:58:14.541Z,2.60
2022-07-29T16:00:43.082Z,1.97
2022-07-29T16:03:13.028Z,2.27
2022-07-29T16:05:41.759Z,2.30
2022-07-29T16:08:10.235Z,2.60
2022-07-29T16:10:38.701Z,2.73
2022-07-29T16:13:07.129Z,2.20
2022-07-29T16:15:35.587Z,2.50
2022-07-29T16:18:04.121Z,2.40
2022-07-29T16:20:33.944Z,2.20
2022-07-29T16:23:02.372Z,2.07
2022-07-29T16:25:57.401Z,1.97
2022-07-29T16:28:19.522Z,1.90
2022-07-29T16:30:47.903Z,1.90
2022-07-29T16:33:16.354Z,2.40
2022-07-29T16:35:46.258Z,1.60
2022-07-29T16:38:14.800Z,1.90
2022-07-29T16:40:43.698Z,2.77
2022-07-29T16:43:12.221Z,1.77
2022-07-29T16:45:45.462Z,2.10
2022-07-29T16:48:15.198Z,2.57
2022-07-29T16:50:48.320Z,2.10
2022-07-29T16:53:16.898Z,2.13
2022-07-29T16:55:45.534Z,2.10
2022-07-29T16:58:14.378Z,2.20
2022-07-29T17:00:43.097Z,2.30
2022-07-29T17:03:11.623Z,2.53
2022-07-29T17:05:52.383Z,2.53
2022-07-29T17:08:24.389Z,2.23
2022-07-29T17:10:52.911Z,2.50
2022-07-29T17:13:22.008Z,2.40
2022-07-29T17:15:50.554Z,3.10
2022-07-29T17:18:19.211Z,3.10
2022-07-29T17:20:47.755Z,3.37
2022-07-29T17:23:16.167Z,2.67
2022-07-29T17:25:46.146Z,3.63
2022-07-29T17:28:14.657Z,2.97
2022-07-29T17:30:43.143Z,4.10
2022-07-29T17:33:11.693Z,3.30
2022-07-29T17:35:57.825Z,2.93
2022-07-29T17:38:26.228Z,3.20
2022-07-29T17:40:56.382Z,3.57
2022-07-29T17:43:24.857Z,3.40
2022-07-29T17:45:56.814Z,3.27
2022-07-29T17:48:28.083Z,2.93
2022-07-29T17:50:58.054Z,3.67
2022-07-29T17:53:26.649Z,3.30
2022-07-29T17:55:58.196Z,3.87
2022-07-29T17:58:27.220Z,3.30
2022-07-29T18:00:55.741Z,3.80
2022-07-29T18:03:25.388Z,3.60
2022-07-29T18:05:54.663Z,3.40
2022-07-29T18:08:23.352Z,3.37
2022-07-29T18:10:52.640Z,3.20
2022-07-29T18:13:22.627Z,3.77
2022-07-29T18:15:52.039Z,3.87
2022-07-29T18:18:20.634Z,3.47
2022-07-29T18:20:49.335Z,3.37
2022-07-29T18:23:17.900Z,3.50
2022-07-29T18:25:46.513Z,3.17
2022-07-29T18:28:15.178Z,2.93
2022-07-29T18:30:46.150Z,3.60
2022-07-29T18:33:24.310Z,3.90
2022-07-29T18:36:10.747Z,4.93
2022-07-29T18:39:08.178Z,4.30
2022-07-29T18:41:38.829Z,3.60
2022-07-29T18:44:20.399Z,3.87
2022-07-29T18:46:52.649Z,4.30
2022-07-29T18:49:21.265Z,4.10
2022-07-29T18:51:49.814Z,4.90
2022-07-29T18:54:19.443Z,3.57
2022-07-29T18:56:48.549Z,4.70
2022-07-29T18:59:20.118Z,5.77
2022-07-29T19:01:51.314Z,3.60
2022-07-29T19:04:20.185Z,4.20
2022-07-29T19:06:49.645Z,4.80
2022-07-29T19:09:18.509Z,4.63
2022-07-29T19:11:47.089Z,4.77
2022-07-29T19:14:15.582Z,4.67
2022-07-29T19:16:44.156Z,4.63
2022-07-29T19:19:14.533Z,5.13
2022-07-29T19:21:43.267Z,4.27
2022-07-29T19:24:15.398Z,4.77
2022-07-29T19:26:47.463Z,4.80
2022-07-29T19:29:17.397Z,4.53
2022-07-29T19:31:46.219Z,4.90
2022-07-29T19:34:16.376Z,4.20
2022-07-29T19:36:45.077Z,5.70
2022-07-29T19:39:15.354Z,5.23
2022-07-29T19:41:44.044Z,4.20
2022-07-29T19:44:12.741Z,5.30
2022-07-29T19:46:41.533Z,5.20
2022-07-29T19:49:10.353Z,5.27
2022-07-29T19:51:40.649Z,5.80
2022-07-29T19:54:09.535Z,4.80
2022-07-29T19:56:40.096Z,4.60
2022-07-29T19:59:10.784Z,4.70
2022-07-29T20:01:41.050Z,4.70
2022-07-29T20:04:09.782Z,5.30
2022-07-29T20:06:42.769Z,4.60
2022-07-29T20:09:20.762Z,4.63
2022-07-29T20:11:49.486Z,4.80
2022-07-29T20:14:18.121Z,4.70
2022-07-29T20:16:46.836Z,5.20
2022-07-29T20:19:15.297Z,4.80
2022-07-29T20:29:52.068Z,4.60
2022-07-29T20:32:40.276Z,4.97
2022-07-29T20:35:12.029Z,5.50
2022-07-29T20:37:52.218Z,4.93
2022-07-29T20:40:26.376Z,5.10
2022-07-29T20:42:57.326Z,4.80
2022-07-29T20:45:26.188Z,5.00
2022-07-29T20:47:54.706Z,4.70
2022-07-29T20:50:24.497Z,4.73
2022-07-29T20:52:56.418Z,5.30
2022-07-29T20:55:25.297Z,4.80
2022-07-29T20:57:59.343Z,4.90
2022-07-29T21:00:28.959Z,5.33
2022-07-29T21:02:57.590Z,4.63
2022-07-29T21:05:26.399Z,5.20
2022-07-29T21:07:58.081Z,5.20
2022-07-29T21:10:28.015Z,5.60
2022-07-29T21:12:58.036Z,6.30
2022-07-29T21:15:28.327Z,6.40
2022-07-29T21:18:00.737Z,6.03
2022-07-29T21:20:30.163Z,5.77
2022-07-29T21:22:59.204Z,6.13
2022-07-29T21:25:29.350Z,6.83
2022-07-29T21:28:16.675Z,5.97
2022-07-29T21:30:45.419Z,6.50
2022-07-29T21:33:14.360Z,6.50
2022-07-29T21:36:01.719Z,6.80
2022-07-29T21:38:33.414Z,5.63
2022-07-29T21:41:03.401Z,6.10
2022-07-29T21:43:34.358Z,7.10
2022-07-29T21:49:10.138Z,7.20
2022-07-29T21:51:38.754Z,6.50
2022-07-29T21:54:07.373Z,7.63
2022-07-29T21:56:36.972Z,6.50
2022-07-29T21:59:09.684Z,5.90
2022-07-29T22:01:39.707Z,6.43
2022-07-29T22:04:08.384Z,6.73
2022-07-29T22:06:37.049Z,5.70
2022-07-29T22:09:06.121Z,7.20
2022-07-29T22:11:36.345Z,6.30
2022-07-29T22:14:07.290Z,6.67
2022-07-29T22:16:58.150Z,6.10
2022-07-29T22:19:27.552Z,7.03
2022-07-29T22:21:58.377Z,6.13
2022-07-29T22:24:26.716Z,5.97
2022-07-29T22:26:55.089Z,5.90
2022-07-29T22:29:26.723Z,6.17
2022-07-29T22:31:55.278Z,5.53
2022-07-29T22:34:23.705Z,6.10
2022-07-29T22:37:06.399Z,6.00
2022-07-29T22:39:35.234Z,6.53
2022-07-29T22:42:03.776Z,5.80
2022-07-29T22:44:33.493Z,6.63
2022-07-29T22:47:02.338Z,7.40
2022-07-29T22:49:31.334Z,6.83
2022-07-29T22:52:00.185Z,6.90
2022-07-29T22:54:28.821Z,7.00
2022-07-29T22:57:06.707Z,7.80
2022-07-29T22:59:37.571Z,6.27
2022-07-29T23:02:06.044Z,7.13
2022-07-29T23:04:34.567Z,7.20
2022-07-29T23:07:03.139Z,7.37
2022-07-29T23:09:31.848Z,7.80
2022-07-29T23:12:00.308Z,7.10
2022-07-29T23:14:28.809Z,7.60
2022-07-29T23:17:29.728Z,8.03
2022-07-29T23:19:58.161Z,8.20
2022-07-29T23:22:26.687Z,7.80
2022-07-29T23:24:55.148Z,8.70
2022-07-29T23:27:23.608Z,7.83
2022-07-29T23:29:52.083Z,8.20
2022-07-29T23:32:26.784Z,7.13
2022-07-29T23:34:56.910Z,7.87
2022-07-29T23:37:26.913Z,8.73
2022-07-29T23:39:55.755Z,8.93
2022-07-29T23:42:30.473Z,8.50
2022-07-29T23:44:58.964Z,7.80
2022-07-29T23:47:36.526Z,8.50
2022-07-29T23:50:08.313Z,7.93
2022-07-29T23:52:36.968Z,7.50
2022-07-29T23:55:37.333Z,8.33
2022-07-29T23:57:55.273Z,8.10
